Time;durP1;ratioP1;P1;durP2;ratioP2;P2;SDS_P1;SDS_P2;PMS_P1;PMS_P2;Temp;Humidity;BMP_temperature;BMP_pressure;BME280_temperature;BME280_humidity;BME280_pressure;Samples;Min_cycle;Max_cycle;Signal;HPM_P1;HPM_P2
2022/03/21 00:01:58;;;;;;;1999.90;999.90;;;9.70;99.90;;;;;;5114095;28;20601;-71
2022/03/21 00:04:24;;;;;;;1999.90;999.90;;;9.70;99.90;;;;;;5113832;28;20175;-71
2022/03/21 00:06:50;;;;;;;1999.90;999.90;;;9.70;99.90;;;;;;5113770;28;20196;-71
2022/03/21 00:09:16;;;;;;;1999.90;999.90;;;9.70;99.90;;;;;;5113914;28;20168;-71
2022/03/21 00:11:41;;;;;;;1999.90;999.90;;;9.70;99.90;;;;;;5113826;28;20399;-71
2022/03/21 00:14:10;;;;;;;1999.90;999.90;;;9.70;99.90;;;;;;5113458;28;20170;-71
2022/03/21 00:16:37;;;;;;;1999.90;999.90;;;9.70;99.90;;;;;;5113767;28;20166;-71
2022/03/21 00:19:03;;;;;;;1999.90;999.90;;;9.70;99.90;;;;;;5113647;28;20445;-71
2022/03/21 00:21:29;;;;;;;1999.90;999.90;;;9.70;99.90;;;;;;5113631;28;20399;-71
2022/03/21 00:23:54;;;;;;;1999.90;999.90;;;9.70;99.90;;;;;;5113484;28;20413;-71
2022/03/21 00:26:20;;;;;;;1999.90;999.90;;;9.60;99.90;;;;;;5113336;28;20405;-71
2022/03/21 00:28:46;;;;;;;1999.90;999.90;;;9.30;99.90;;;;;;5113317;28;20200;-71
2022/03/21 00:31:11;;;;;;;1999.90;999.90;;;8.90;99.90;;;;;;5113525;28;20289;-71
2022/03/21 00:33:37;;;;;;;1999.90;999.90;;;8.90;99.90;;;;;;5113419;28;20414;-71
2022/03/21 00:36:05;;;;;;;1999.90;999.90;;;8.90;99.90;;;;;;5113095;28;20625;-71
2022/03/21 00:38:31;;;;;;;1999.90;999.90;;;9.00;99.90;;;;;;5113051;28;20196;-71
2022/03/21 00:40:57;;;;;;;1999.90;999.90;;;9.10;99.90;;;;;;5113253;28;20421;-71
2022/03/21 00:43:23;;;;;;;1999.90;999.90;;;9.10;99.90;;;;;;5113460;28;20660;-70
2022/03/21 00:45:54;;;;;;;1999.90;999.90;;;9.10;99.90;;;;;;5112935;28;20408;-71
2022/03/21 00:48:22;;;;;;;1999.90;999.90;;;9.00;99.90;;;;;;5112982;28;20460;-71
2022/03/21 00:50:47;;;;;;;1999.90;999.90;;;8.80;99.90;;;;;;5113052;28;20493;-71
2022/03/21 00:53:16;;;;;;;1999.90;999.90;;;8.90;99.90;;;;;;5113103;28;20443;-71
2022/03/21 00:55:42;;;;;;;1999.90;999.90;;;9.00;99.90;;;;;;5112649;28;20174;-71
2022/03/21 00:58:08;;;;;;;1999.90;999.90;;;9.10;99.90;;;;;;5112989;28;20434;-71
2022/03/21 01:00:34;;;;;;;1999.90;999.90;;;9.10;99.90;;;;;;5112908;28;20761;-71
2022/03/21 01:03:01;;;;;;;1999.90;999.90;;;9.10;99.90;;;;;;5112979;28;20176;-71
2022/03/21 01:05:28;;;;;;;1999.90;999.90;;;9.10;99.90;;;;;;5112706;28;20463;-71
2022/03/21 01:07:55;;;;;;;1999.90;999.90;;;9.10;99.90;;;;;;5112843;28;20462;-71
2022/03/21 01:10:22;;;;;;;1999.90;999.90;;;9.10;99.90;;;;;;5112803;28;20482;-71
2022/03/21 01:12:49;;;;;;;1999.90;999.90;;;9.10;99.90;;;;;;5112848;28;20410;-71
2022/03/21 01:15:17;;;;;;;1999.90;999.90;;;9.20;99.90;;;;;;5112499;28;20405;-71
2022/03/21 01:17:44;;;;;;;1999.90;999.90;;;9.20;99.90;;;;;;5112573;28;20933;-71
2022/03/21 01:20:11;;;;;;;1999.90;999.90;;;9.20;99.90;;;;;;5112640;28;20476;-71
2022/03/21 01:22:37;;;;;;;1999.90;999.90;;;9.30;99.90;;;;;;5112632;28;20422;-71
2022/03/21 01:25:03;;;;;;;1999.90;999.90;;;9.30;99.90;;;;;;5112296;28;20411;-71
2022/03/21 01:27:29;;;;;;;1999.90;999.90;;;9.20;99.90;;;;;;5112336;28;20199;-71
2022/03/21 01:29:55;;;;;;;1999.90;999.90;;;9.10;99.90;;;;;;5112551;28;20406;-71
2022/03/21 01:32:21;;;;;;;1999.90;999.90;;;9.10;99.90;;;;;;5112519;28;20223;-71
2022/03/21 01:34:47;;;;;;;1999.90;999.90;;;9.10;99.90;;;;;;5112125;28;21071;-71
2022/03/21 01:37:12;;;;;;;1999.90;999.90;;;9.10;99.90;;;;;;5112826;28;20198;-70
2022/03/21 01:39:38;;;;;;;1999.90;999.90;;;9.10;99.90;;;;;;5114634;28;20659;-71
2022/03/21 01:42:04;;;;;;;1999.90;999.90;;;9.10;99.90;;;;;;5114223;28;20164;-70
2022/03/21 01:44:30;;;;;;;1999.90;999.90;;;9.20;99.90;;;;;;5114297;28;20409;-70
2022/03/21 01:46:55;;;;;;;1999.90;999.90;;;9.20;99.90;;;;;;5112173;28;20780;-71
2022/03/21 01:49:21;;;;;;;1999.90;999.90;;;9.20;99.90;;;;;;5112305;28;20236;-71
2022/03/21 01:51:47;;;;;;;1999.90;999.90;;;9.20;99.90;;;;;;5112529;28;20172;-71
2022/03/21 01:56:58;;;;;;;1999.90;999.90;;;9.00;99.90;;;;;;5112486;28;20925;-71
2022/03/21 01:59:25;;;;;;;1999.90;999.90;;;8.90;99.90;;;;;;5112216;28;20410;-71
2022/03/21 02:01:50;;;;;;;1999.90;999.90;;;8.90;99.90;;;;;;5112202;28;20485;-71
2022/03/21 02:04:16;;;;;;;1999.90;999.90;;;8.90;99.90;;;;;;5112195;28;20893;-71
2022/03/21 02:06:43;;;;;;;1999.90;999.90;;;8.90;99.90;;;;;;5112315;28;20263;-70
2022/03/21 02:09:08;;;;;;;1999.90;999.90;;;8.80;99.90;;;;;;5112248;28;20429;-71
2022/03/21 02:11:34;;;;;;;1999.90;999.90;;;8.90;99.90;;;;;;5112086;28;20458;-70
2022/03/21 02:14:02;;;;;;;1999.90;999.90;;;8.80;99.90;;;;;;5111888;28;20714;-70
2022/03/21 02:16:32;;;;;;;1999.90;999.90;;;8.80;99.90;;;;;;5114960;28;20166;-71
2022/03/21 02:19:02;;;;;;;1999.90;999.90;;;8.70;99.90;;;;;;5118048;28;20495;-71
2022/03/21 02:21:54;;;;;;;1999.90;999.90;;;8.50;99.90;;;;;;5117813;28;20408;-71
2022/03/21 02:24:33;;;;;;;1999.90;999.90;;;8.30;99.90;;;;;;5117660;28;20440;-71
2022/03/21 02:27:01;;;;;;;1999.90;999.90;;;8.00;99.90;;;;;;5099045;28;20485;-70
2022/03/21 02:29:29;;;;;;;1999.90;999.90;;;8.00;99.90;;;;;;5116385;28;20407;-71
2022/03/21 02:31:55;;;;;;;1999.90;999.90;;;8.00;99.90;;;;;;5116226;28;20405;-70
2022/03/21 02:34:24;;;;;;;1999.90;999.90;;;7.90;99.90;;;;;;5115859;28;20476;-70
2022/03/21 02:36:55;;;;;;;1999.90;999.90;;;7.90;99.90;;;;;;5115982;28;20408;-70
2022/03/21 02:39:21;;;;;;;1999.90;999.90;;;7.80;99.90;;;;;;5116067;28;20420;-70
2022/03/21 02:41:47;;;;;;;1999.90;999.90;;;7.90;99.90;;;;;;5097520;28;20464;-70
2022/03/21 02:44:13;;;;;;;1999.90;999.90;;;7.80;99.90;;;;;;5115506;28;20413;-70
2022/03/21 02:46:39;;;;;;;1999.90;999.90;;;7.90;99.90;;;;;;5115748;28;20961;-70
2022/03/21 02:49:04;;;;;;;1999.90;999.90;;;7.90;99.90;;;;;;5115856;28;20216;-70
2022/03/21 02:51:33;;;;;;;1999.90;999.90;;;7.80;99.90;;;;;;5115764;28;20563;-70
2022/03/21 02:53:58;;;;;;;1999.90;999.90;;;7.60;99.90;;;;;;5115530;28;20166;-71
2022/03/21 02:56:24;;;;;;;1999.90;999.90;;;7.40;99.90;;;;;;5115710;28;20941;-71
2022/03/21 02:58:50;;;;;;;1999.90;999.90;;;7.30;99.90;;;;;;5117170;28;20189;-71
2022/03/21 03:01:17;;;;;;;1999.90;999.90;;;7.20;99.90;;;;;;5117598;28;20535;-70
2022/03/21 03:03:44;;;;;;;1999.90;999.90;;;7.30;99.90;;;;;;5117274;28;20177;-71
2022/03/21 03:06:10;;;;;;;1999.90;999.90;;;7.10;99.90;;;;;;5117387;28;20399;-70
2022/03/21 03:08:37;;;;;;;1999.90;999.90;;;7.10;99.90;;;;;;5116910;28;20459;-70
2022/03/21 03:11:03;;;;;;;1999.90;999.90;;;7.00;99.90;;;;;;5117298;28;20767;-71
2022/03/21 03:13:29;;;;;;;1999.90;999.90;;;6.90;99.90;;;;;;5117277;28;20481;-70
2022/03/21 03:15:55;;;;;;;1999.90;999.90;;;6.90;99.90;;;;;;5116590;28;20410;-71
2022/03/21 03:18:21;;;;;;;1999.90;999.90;;;6.90;99.90;;;;;;5116651;28;20203;-71
2022/03/21 03:20:55;;;;;;;1999.90;999.90;;;6.80;99.90;;;;;;5116940;28;20207;-70
2022/03/21 03:23:29;;;;;;;1999.90;999.90;;;6.80;99.90;;;;;;5116800;28;20405;-70
2022/03/21 03:25:58;;;;;;;1999.90;999.90;;;6.90;99.90;;;;;;5116319;28;20422;-71
2022/03/21 03:28:24;;;;;;;1999.90;999.90;;;6.90;99.90;;;;;;5115054;28;20459;-71
2022/03/21 03:30:50;;;;;;;1999.90;999.90;;;6.90;99.90;;;;;;5116598;28;20432;-71
2022/03/21 03:33:16;;;;;;;1999.90;999.90;;;6.90;99.90;;;;;;5116506;28;20399;-71
2022/03/21 03:35:41;;;;;;;1999.90;999.90;;;7.00;99.90;;;;;;5115887;28;20169;-71
2022/03/21 03:38:07;;;;;;;1999.90;999.90;;;7.00;99.90;;;;;;5116196;28;20202;-71
2022/03/21 03:40:33;;;;;;;1999.90;999.90;;;7.00;99.90;;;;;;5115833;28;20180;-70
2022/03/21 03:42:58;;;;;;;1999.90;999.90;;;6.80;99.90;;;;;;5116186;28;20494;-70
2022/03/21 03:45:25;;;;;;;1999.90;999.90;;;6.70;99.90;;;;;;5115734;28;20170;-71
2022/03/21 03:47:52;;;;;;;1999.90;999.90;;;6.60;99.90;;;;;;5116067;28;20205;-70
2022/03/21 03:50:18;;;;;;;1999.90;999.90;;;6.50;99.90;;;;;;5116270;28;20949;-71
2022/03/21 03:52:46;;;;;;;1999.90;999.90;;;6.60;99.90;;;;;;5115621;28;20416;-70
2022/03/21 03:55:13;;;;;;;1999.90;999.90;;;6.60;99.90;;;;;;5116004;28;20392;-71
2022/03/21 03:57:39;;;;;;;1999.90;999.90;;;6.60;99.90;;;;;;5116465;28;20899;-71
2022/03/21 04:00:07;;;;;;;1999.90;999.90;;;6.60;99.90;;;;;;5115647;28;20433;-71
2022/03/21 04:03:44;;;;;;;1999.90;999.90;;;6.60;99.90;;;;;;5115817;28;20456;-70
2022/03/21 04:05:19;;;;;;;1999.90;999.90;;;6.60;99.90;;;;;;5115416;28;20458;-70
2022/03/21 04:07:44;;;;;;;1999.90;999.90;;;6.70;99.90;;;;;;5115349;28;20479;-71
2022/03/21 04:10:10;;;;;;;1999.90;999.90;;;6.60;99.90;;;;;;5116097;28;20169;-72
2022/03/21 04:12:35;;;;;;;1999.90;999.90;;;6.50;99.90;;;;;;5115702;28;20166;-71
2022/03/21 04:15:01;;;;;;;1999.90;999.90;;;6.50;99.90;;;;;;5115368;28;20197;-71
2022/03/21 04:17:27;;;;;;;1999.90;999.90;;;6.50;99.90;;;;;;5115642;28;20280;-71
2022/03/21 04:19:52;;;;;;;1999.90;999.90;;;6.50;99.90;;;;;;5115904;28;20898;-71
2022/03/21 04:22:19;;;;;;;1999.90;999.90;;;6.50;99.90;;;;;;5115546;28;20169;-70
2022/03/21 04:24:45;;;;;;;1999.90;999.90;;;6.50;99.90;;;;;;5114952;28;20173;-71
2022/03/21 04:27:10;;;;;;;1999.90;999.90;;;6.40;99.90;;;;;;5114103;28;20467;-71
2022/03/21 04:29:36;;;;;;;1999.90;999.90;;;6.30;99.90;;;;;;5113664;28;20166;-70
2022/03/21 04:32:01;;;;;;;1999.90;999.90;;;6.20;99.90;;;;;;5113595;28;20170;-71
2022/03/21 04:34:27;;;;;;;1999.90;999.90;;;6.30;99.90;;;;;;5113635;28;20166;-71
2022/03/21 04:36:53;;;;;;;1999.90;999.90;;;6.30;99.90;;;;;;5113404;28;20166;-71
2022/03/21 04:39:18;;;;;;;1999.90;999.90;;;6.20;99.90;;;;;;5112909;28;20216;-71
2022/03/21 04:41:44;;;;;;;1999.90;999.90;;;6.20;99.90;;;;;;5113447;28;20161;-71
2022/03/21 04:44:10;;;;;;;1999.90;999.90;;;6.20;99.90;;;;;;5113101;28;20679;-70
2022/03/21 04:46:36;;;;;;;1999.90;999.90;;;6.00;99.90;;;;;;5113154;28;20175;-70
2022/03/21 04:49:01;;;;;;;1999.90;999.90;;;5.90;99.90;;;;;;5113151;28;20419;-71
2022/03/21 04:51:27;;;;;;;1999.90;999.90;;;5.90;99.90;;;;;;5113308;28;20165;-71
2022/03/21 04:53:52;;;;;;;1999.90;999.90;;;5.90;99.90;;;;;;5113111;28;20162;-71
2022/03/21 04:56:18;;;;;;;1999.90;999.90;;;5.90;99.90;;;;;;5113000;28;20249;-70
2022/03/21 04:58:44;;;;;;;1999.90;999.90;;;5.90;99.90;;;;;;5113054;28;20197;-71
2022/03/21 05:01:09;;;;;;;1999.90;999.90;;;5.90;99.90;;;;;;5113013;28;20653;-71
2022/03/21 05:03:35;;;;;;;1999.90;999.90;;;5.90;99.90;;;;;;5112987;28;20238;-71
2022/03/21 05:06:00;;;;;;;1999.90;999.90;;;5.80;99.90;;;;;;5112675;28;20245;-70
2022/03/21 05:08:26;;;;;;;1999.90;999.90;;;5.80;99.90;;;;;;5112896;28;20250;-71
2022/03/21 05:10:52;;;;;;;1999.90;999.90;;;5.90;99.90;;;;;;5113623;28;20172;-70
2022/03/21 05:13:17;;;;;;;1999.90;999.90;;;5.90;99.90;;;;;;5114297;28;20165;-70
2022/03/21 05:15:43;;;;;;;1999.90;999.90;;;5.90;99.90;;;;;;5114368;28;20161;-69
2022/03/21 05:18:08;;;;;;;1999.90;999.90;;;5.90;99.90;;;;;;5114448;28;20235;-70
2022/03/21 05:20:34;;;;;;;1999.90;999.90;;;5.90;99.90;;;;;;5114513;28;20215;-71
2022/03/21 05:31:12;;;;;;;1999.90;999.90;;;5.70;99.90;;;;;;5113941;28;20786;-70
2022/03/21 05:36:28;;;;;;;1999.90;999.90;;;5.70;99.90;;;;;;5113862;28;20398;-70
2022/03/21 05:38:55;;;;;;;1999.90;999.90;;;5.70;99.90;;;;;;5113549;28;20439;-70
2022/03/21 05:41:21;;;;;;;1999.90;999.90;;;5.70;99.90;;;;;;5113782;28;20407;-70
2022/03/21 05:43:47;;;;;;;1999.90;999.90;;;5.80;99.90;;;;;;5113499;28;20464;-70
2022/03/21 05:46:13;;;;;;;1999.90;999.90;;;5.80;99.90;;;;;;5113470;28;20166;-70
2022/03/21 05:48:52;;;;;;;1999.90;999.90;;;5.80;99.90;;;;;;5113499;28;20509;-70
2022/03/21 05:51:23;;;;;;;1999.90;999.90;;;5.80;99.90;;;;;;5114232;28;20486;-70
2022/03/21 05:53:49;;;;;;;1999.90;999.90;;;5.70;99.90;;;;;;5117822;28;20767;-70
2022/03/21 05:56:15;;;;;;;1999.90;999.90;;;5.70;99.90;;;;;;5117458;28;20419;-70
2022/03/21 05:58:42;;;;;;;1999.90;999.90;;;5.70;99.90;;;;;;5117702;28;20452;-70
2022/03/21 06:01:10;;;;;;;1999.90;999.90;;;5.70;99.90;;;;;;5117369;28;20421;-70
2022/03/21 06:03:36;;;;;;;1999.90;999.90;;;5.70;99.90;;;;;;5117676;28;20993;-70
2022/03/21 06:06:02;;;;;;;1999.90;999.90;;;5.80;99.90;;;;;;5117364;28;20427;-70
2022/03/21 06:08:27;;;;;;;1999.90;999.90;;;5.90;99.90;;;;;;5117375;28;20963;-70
2022/03/21 06:11:03;;;;;;;1999.90;999.90;;;5.80;99.90;;;;;;5117440;28;20173;-70
2022/03/21 06:13:33;;;;;;;1999.90;999.90;;;5.80;99.90;;;;;;5116739;28;20157;-70
2022/03/21 06:16:03;;;;;;;1999.90;999.90;;;5.80;99.90;;;;;;5115843;28;20394;-70
2022/03/21 06:18:32;;;;;;;1999.90;999.90;;;5.90;99.90;;;;;;5116207;28;20859;-69
2022/03/21 06:21:01;;;;;;;1999.90;999.90;;;6.00;99.90;;;;;;5115945;28;20461;-69
2022/03/21 06:23:27;;;;;;;1999.90;999.90;;;5.90;99.90;;;;;;5115990;28;20395;-69
2022/03/21 06:25:58;;;;;;;1999.90;999.90;;;5.90;99.90;;;;;;5115658;28;20495;-69
2022/03/21 06:28:28;;;;;;;1999.90;999.90;;;5.90;99.90;;;;;;5115681;28;20580;-70
2022/03/21 06:30:54;;;;;;;1999.90;999.90;;;5.80;99.90;;;;;;5115927;28;20403;-69
2022/03/21 06:33:23;;;;;;;1999.90;999.90;;;5.80;99.90;;;;;;5115808;28;20819;-70
2022/03/21 06:35:49;;;;;;;1999.90;999.90;;;5.90;99.90;;;;;;5115444;28;20391;-69
2022/03/21 06:38:15;;;;;;;1999.90;999.90;;;6.00;99.90;;;;;;5115556;28;20440;-70
2022/03/21 06:40:42;;;;;;;1999.90;999.90;;;6.10;99.90;;;;;;5115667;28;20406;-69
2022/03/21 06:43:08;;;;;;;1999.90;999.90;;;6.20;99.90;;;;;;5115483;28;20715;-70
2022/03/21 06:45:34;;;;;;;1999.90;999.90;;;6.20;99.90;;;;;;5115298;28;20490;-69
2022/03/21 06:48:00;;;;;;;1999.90;999.90;;;6.20;99.90;;;;;;5115420;28;20828;-70
2022/03/21 06:50:26;;;;;;;1999.90;999.90;;;6.30;99.90;;;;;;5115448;28;20158;-69
2022/03/21 06:52:52;;;;;;;1999.90;999.90;;;6.30;99.90;;;;;;5115376;28;20426;-69
2022/03/21 06:55:19;;;;;;;1999.90;999.90;;;6.40;99.90;;;;;;5115030;28;20399;-70
2022/03/21 06:57:45;;;;;;;1999.90;999.90;;;6.50;99.90;;;;;;5115298;28;20189;-69
2022/03/21 07:00:13;;;;;;;1999.90;999.90;;;6.60;99.90;;;;;;5115501;28;20926;-69
2022/03/21 07:02:40;;;;;;;1999.90;999.90;;;6.70;99.90;;;;;;5115261;28;20412;-70
2022/03/21 07:05:07;;;;;;;1999.90;999.90;;;6.80;99.90;;;;;;5114907;28;20402;-70
2022/03/21 07:07:33;;;;;;;1999.90;999.90;;;6.90;99.90;;;;;;5114978;28;20459;-70
2022/03/21 07:10:00;;;;;;;1999.90;999.90;;;7.00;99.90;;;;;;5114945;28;20396;-70
2022/03/21 07:12:26;;;;;;;1999.90;999.90;;;7.10;99.90;;;;;;5115000;28;20508;-70
2022/03/21 07:14:51;;;;;;;1999.90;999.90;;;7.20;99.90;;;;;;5114673;28;20988;-69
2022/03/21 07:17:21;;;;;;;1999.90;999.90;;;7.20;99.90;;;;;;5114877;28;20510;-69
2022/03/21 07:19:47;;;;;;;1999.90;999.90;;;7.30;99.90;;;;;;5114914;28;20258;-70
2022/03/21 07:22:16;;;;;;;1999.90;999.90;;;7.40;99.90;;;;;;5114898;28;20433;-70
2022/03/21 07:24:41;;;;;;;1999.90;999.90;;;7.50;99.90;;;;;;5114544;28;20498;-70
2022/03/21 07:27:07;;;;;;;1999.90;999.90;;;7.70;99.90;;;;;;5114615;28;20473;-70
2022/03/21 07:29:33;;;;;;;1999.90;999.90;;;7.90;99.90;;;;;;5114744;28;20207;-70
2022/03/21 07:31:59;;;;;;;1999.90;999.90;;;8.00;99.90;;;;;;5114689;28;20174;-69
2022/03/21 07:34:25;;;;;;;1999.90;999.90;;;8.10;99.90;;;;;;5114607;28;20393;-70
2022/03/21 07:36:51;;;;;;;1999.90;999.90;;;8.20;99.90;;;;;;5114500;28;20460;-70
2022/03/21 07:39:17;;;;;;;1999.90;999.90;;;8.30;99.90;;;;;;5114842;28;20209;-70
2022/03/21 07:41:44;;;;;;;1999.90;999.90;;;8.40;99.90;;;;;;5114482;28;20247;-69
2022/03/21 07:44:10;;;;;;;1999.90;999.90;;;8.40;99.90;;;;;;5110184;28;20920;-70
2022/03/21 07:49:20;;;;;;;1999.90;999.90;;;8.70;99.90;;;;;;5114103;28;20452;-70
2022/03/21 07:51:46;;;;;;;1999.90;999.90;;;8.70;99.90;;;;;;5113578;28;20905;-70
2022/03/21 07:54:13;;;;;;;1999.90;999.90;;;8.80;99.90;;;;;;5113653;28;20163;-70
2022/03/21 07:56:40;;;;;;;1999.90;999.90;;;9.00;99.90;;;;;;5113812;28;20166;-70
2022/03/21 07:59:06;;;;;;;1999.90;999.90;;;9.10;99.90;;;;;;5113320;28;20478;-70
2022/03/21 08:01:33;;;;;;;1999.90;999.90;;;9.20;99.90;;;;;;5113825;28;20468;-70
2022/03/21 08:04:00;;;;;;;1999.90;999.90;;;9.40;99.90;;;;;;5113437;28;20409;-70
2022/03/21 08:06:26;;;;;;;1999.90;999.90;;;9.50;99.90;;;;;;5113039;28;20404;-70
2022/03/21 08:08:53;;;;;;;1999.90;999.90;;;9.50;99.90;;;;;;5113671;28;20493;-70
2022/03/21 08:11:20;;;;;;;1999.90;999.90;;;9.60;99.90;;;;;;5113751;28;20425;-70
2022/03/21 08:13:49;;;;;;;1999.90;999.90;;;9.70;99.90;;;;;;5112793;28;20441;-70
2022/03/21 08:16:22;;;;;;;1999.90;999.90;;;9.90;99.90;;;;;;5112908;28;20914;-70
2022/03/21 08:18:51;;;;;;;1999.90;999.90;;;9.90;99.90;;;;;;5113216;28;20419;-70
2022/03/21 08:21:17;;;;;;;1999.90;999.90;;;10.00;99.90;;;;;;5113120;28;20421;-70
2022/03/21 08:23:43;;;;;;;1999.90;999.90;;;10.10;99.90;;;;;;5113387;28;20809;-71
2022/03/21 08:26:10;;;;;;;1999.90;999.90;;;10.20;99.90;;;;;;5113129;28;20494;-70
2022/03/21 08:28:36;;;;;;;1999.90;999.90;;;10.30;99.90;;;;;;5112812;28;20218;-70
2022/03/21 08:31:02;;;;;;;1999.90;999.90;;;10.40;99.90;;;;;;5113205;28;20455;-71
2022/03/21 08:33:28;;;;;;;1999.90;999.90;;;10.50;99.90;;;;;;5112936;28;20497;-70
2022/03/21 08:35:54;;;;;;;1999.90;999.90;;;10.40;99.90;;;;;;5112253;28;20817;-70
2022/03/21 08:38:19;;;;;;;1999.90;999.90;;;10.50;99.90;;;;;;5112827;28;20701;-70
2022/03/21 08:40:45;;;;;;;1999.90;999.90;;;10.60;99.90;;;;;;5113118;28;20417;-70
2022/03/21 08:43:10;;;;;;;1999.90;999.90;;;10.60;99.90;;;;;;5112611;28;20177;-70
2022/03/21 08:45:36;;;;;;;1999.90;999.90;;;10.70;99.90;;;;;;5112681;28;20176;-70
2022/03/21 08:48:03;;;;;;;1999.90;999.90;;;10.80;99.90;;;;;;5112533;28;20208;-70
2022/03/21 08:50:29;;;;;;;1999.90;999.90;;;10.90;99.90;;;;;;5112519;28;20411;-70
2022/03/21 08:52:58;;;;;;;1999.90;999.90;;;10.90;99.90;;;;;;5112854;28;20739;-70
2022/03/21 08:55:24;;;;;;;1999.90;999.90;;;11.00;99.90;;;;;;5112473;28;20456;-70
2022/03/21 08:57:49;;;;;;;1999.90;999.90;;;11.20;99.90;;;;;;5112198;28;20931;-70
2022/03/21 09:00:15;;;;;;;1999.90;999.90;;;11.30;99.90;;;;;;5112709;28;20426;-70
2022/03/21 09:02:41;;;;;;;1999.90;999.90;;;11.50;99.90;;;;;;5112518;28;20673;-70
2022/03/21 09:05:12;;;;;;;1999.90;999.90;;;11.60;99.90;;;;;;5111923;28;20407;-70
2022/03/21 09:07:39;;;;;;;1999.90;999.90;;;11.60;99.90;;;;;;5112372;28;21161;-70
2022/03/21 09:10:05;;;;;;;1999.90;999.90;;;11.80;99.90;;;;;;5112677;28;20776;-70
2022/03/21 09:12:32;;;;;;;1999.90;999.90;;;11.90;99.90;;;;;;5112026;28;20399;-70
2022/03/21 09:14:57;;;;;;;1999.90;999.90;;;12.10;99.90;;;;;;5111991;28;20404;-69
2022/03/21 09:17:23;;;;;;;1999.90;999.90;;;12.20;99.90;;;;;;5089524;28;20447;-70
2022/03/21 09:19:49;;;;;;;1999.90;999.90;;;12.40;99.90;;;;;;5090822;28;20654;-70
2022/03/21 09:22:15;;;;;;;1999.90;999.90;;;12.50;99.90;;;;;;5091382;28;20404;-70
2022/03/21 09:24:40;;;;;;;1999.90;999.90;;;12.60;99.90;;;;;;5090400;28;20175;-69
2022/03/21 09:27:06;;;;;;;1999.90;999.90;;;12.80;99.90;;;;;;5089899;28;20194;-70
2022/03/21 09:29:32;;;;;;;1999.90;999.90;;;12.90;99.90;;;;;;5091594;28;20173;-69
2022/03/21 09:31:58;;;;;;;1999.90;999.90;;;13.00;99.90;;;;;;5090354;28;20192;-69
2022/03/21 09:34:24;;;;;;;1999.90;999.90;;;13.10;99.90;;;;;;5090343;28;20405;-70
2022/03/21 09:36:50;;;;;;;1999.90;999.90;;;13.20;99.90;;;;;;5091146;28;20285;-70
2022/03/21 09:39:17;;;;;;;1999.90;999.90;;;13.30;99.90;;;;;;5091201;28;20458;-71
2022/03/21 09:41:44;;;;;;;1999.90;999.90;;;13.40;99.90;;;;;;5090736;28;20411;-71
2022/03/21 09:44:10;;;;;;;1999.90;999.90;;;13.60;99.90;;;;;;5090850;28;20398;-71
2022/03/21 09:46:41;;;;;;;1999.90;999.90;;;13.70;99.90;;;;;;5091399;28;20494;-71
2022/03/21 09:49:10;;;;;;;1999.90;999.90;;;13.80;99.90;;;;;;5091086;28;20221;-71
2022/03/21 09:51:37;;;;;;;1999.90;999.90;;;13.90;99.90;;;;;;5091363;28;20408;-71
2022/03/21 09:54:03;;;;;;;1999.90;999.90;;;13.90;99.90;;;;;;5091267;28;20773;-71
2022/03/21 09:56:29;;;;;;;1999.90;999.90;;;14.00;99.90;;;;;;5090973;28;20410;-72
2022/03/21 09:59:01;;;;;;;1999.90;999.90;;;14.10;99.90;;;;;;5091312;28;20802;-71
2022/03/21 10:01:32;;;;;;;1999.90;999.90;;;14.30;99.90;;;;;;5091110;28;20954;-71
2022/03/21 10:04:00;;;;;;;1999.90;999.90;;;14.30;99.90;;;;;;5090451;28;20864;-71
2022/03/21 10:06:37;;;;;;;1999.90;999.90;;;14.50;99.90;;;;;;5091329;28;20411;-71
2022/03/21 10:09:14;;;;;;;1999.90;999.90;;;14.50;99.90;;;;;;5091206;28;20505;-71
2022/03/21 10:11:48;;;;;;;1999.90;999.90;;;14.70;99.90;;;;;;5090878;28;20492;-71
2022/03/21 10:14:35;;;;;;;1999.90;999.90;;;14.80;99.90;;;;;;5091006;28;20407;-71
2022/03/21 10:17:09;;;;;;;1999.90;999.90;;;14.90;99.90;;;;;;5091099;28;20924;-71
2022/03/21 10:19:44;;;;;;;1999.90;999.90;;;15.10;99.90;;;;;;5090208;28;20771;-71
2022/03/21 10:22:12;;;;;;;1999.90;999.90;;;15.40;99.90;;;;;;5090875;28;20421;-71
2022/03/21 10:24:41;;;;;;;1999.90;999.90;;;15.50;99.90;;;;;;5090690;28;20481;-71
2022/03/21 10:27:25;;;;;;;1999.90;999.90;;;15.60;99.90;;;;;;5090212;28;20396;-71
2022/03/21 10:29:53;;;;;;;1999.90;999.90;;;15.70;99.90;;;;;;5091044;28;20901;-71
2022/03/21 10:32:39;;;;;;;1999.90;999.90;;;15.80;99.90;;;;;;5090680;28;20407;-71
2022/03/21 10:35:18;;;;;;;1999.90;999.90;;;15.90;99.90;;;;;;5090384;28;20500;-71
2022/03/21 10:37:49;;;;;;;1999.90;999.90;;;15.90;99.90;;;;;;5092089;28;20534;-71
2022/03/21 10:40:25;;;;;;;1999.90;999.90;;;16.00;99.90;;;;;;5094347;28;20446;-71
2022/03/21 10:43:07;;;;;;;1999.90;999.90;;;16.20;99.90;;;;;;5094337;28;20488;-71
2022/03/21 10:45:38;;;;;;;1999.90;999.90;;;16.40;99.90;;;;;;5094198;28;20420;-71
2022/03/21 10:48:06;;;;;;;1999.90;999.90;;;16.50;99.90;;;;;;5094040;28;20452;-71
2022/03/21 10:50:35;;;;;;;1999.90;999.90;;;16.40;99.90;;;;;;5094635;28;20410;-72
2022/03/21 10:53:12;;;;;;;1999.90;999.90;;;16.70;99.90;;;;;;5094578;28;20849;-71
2022/03/21 10:55:40;;;;;;;1999.90;999.90;;;16.90;99.90;;;;;;5093937;28;20400;-71
2022/03/21 10:58:06;;;;;;;1999.90;999.90;;;17.00;99.90;;;;;;5094413;28;20431;-71
2022/03/21 11:00:33;;;;;;;1999.90;999.90;;;17.30;99.90;;;;;;5094392;28;20403;-71
2022/03/21 11:03:14;;;;;;;1999.90;999.90;;;17.50;99.90;;;;;;5093645;28;20405;-71
2022/03/21 11:05:42;;;;;;;1999.90;999.90;;;17.60;99.90;;;;;;5093780;28;20760;-71
2022/03/21 11:08:10;;;;;;;1999.90;999.90;;;17.60;99.90;;;;;;5094064;28;20538;-71
2022/03/21 11:10:37;;;;;;;1999.90;999.90;;;17.70;99.90;;;;;;5093772;28;20410;-70
2022/03/21 11:13:05;;;;;;;1999.90;999.90;;;17.80;99.90;;;;;;5094455;28;20842;-70
2022/03/21 11:15:32;;;;;;;1999.90;999.90;;;18.10;99.90;;;;;;5093760;28;20405;-71
2022/03/21 11:17:58;;;;;;;1999.90;999.90;;;18.10;99.90;;;;;;5093501;28;20925;-72
2022/03/21 11:20:26;;;;;;;1999.90;999.90;;;18.20;99.90;;;;;;5093880;28;20417;-71
2022/03/21 11:22:55;;;;;;;1999.90;999.90;;;18.30;99.90;;;;;;5093920;28;20181;-70
2022/03/21 11:25:24;;;;;;;1999.90;999.90;;;18.30;99.90;;;;;;5093166;28;20494;-70
2022/03/21 11:28:17;;;;;;;1999.90;999.90;;;18.40;99.90;;;;;;5093709;28;20459;-70
2022/03/21 11:31:02;;;;;;;1999.90;999.90;;;18.50;99.90;;;;;;5093958;28;20398;-70
2022/03/21 11:33:54;;;;;;;1999.90;999.90;;;18.60;99.90;;;;;;5093551;28;20402;-70
2022/03/21 11:36:23;;;;;;;1999.90;999.90;;;18.80;99.90;;;;;;5093529;28;20505;-70
2022/03/21 11:38:49;;;;;;;1999.90;999.90;;;18.90;99.90;;;;;;5093550;28;20527;-71
2022/03/21 11:41:21;;;;;;;1999.90;999.90;;;18.90;99.90;;;;;;5093084;28;20496;-71
2022/03/21 11:44:06;;;;;;;1999.90;999.90;;;19.10;99.90;;;;;;5093189;28;20538;-71
2022/03/21 11:46:34;;;;;;;1999.90;999.90;;;19.20;99.90;;;;;;5093490;28;20481;-70
2022/03/21 11:49:02;;;;;;;1999.90;999.90;;;19.50;99.90;;;;;;5092049;28;20463;-70
2022/03/21 11:51:35;;;;;;;1999.90;999.90;;;20.00;99.90;;;;;;5093482;28;20454;-70
2022/03/21 11:54:02;;;;;;;1999.90;999.90;;;20.40;99.90;;;;;;5093337;28;20829;-69
2022/03/21 11:56:36;;;;;;;1999.90;999.90;;;21.00;99.90;;;;;;5093193;28;20432;-70
2022/03/21 11:59:03;;;;;;;1999.90;999.90;;;22.00;99.90;;;;;;5092963;28;21015;-71
2022/03/21 12:01:29;;;;;;;1999.90;999.90;;;22.60;99.90;;;;;;5093340;28;20410;-70
2022/03/21 12:03:55;;;;;;;1999.90;999.90;;;23.40;96.30;;;;;;5092647;28;20491;-71
2022/03/21 12:06:32;;;;;;;1999.90;999.90;;;23.80;87.00;;;;;;5092722;28;21130;-71
2022/03/21 12:08:59;;;;;;;1999.90;999.90;;;24.60;81.30;;;;;;5092875;28;20883;-71
2022/03/21 12:11:48;;;;;;;1999.90;999.90;;;25.10;72.60;;;;;;5092441;28;20478;-71
2022/03/21 12:14:36;;;;;;;1999.90;999.90;;;25.70;61.60;;;;;;5092155;28;20391;-71
2022/03/21 12:17:02;;;;;;;1999.90;999.90;;;26.30;58.30;;;;;;5092087;28;20404;-71
2022/03/21 12:22:29;;;;;;;1999.90;999.90;;;26.80;48.70;;;;;;5093118;28;20171;-71
2022/03/21 12:25:17;;;;;;;1999.90;999.90;;;26.60;43.80;;;;;;5092237;28;20409;-71
2022/03/21 12:27:56;;;;;;;1999.90;999.90;;;26.70;42.50;;;;;;5092687;28;20414;-71
2022/03/21 12:30:29;;;;;;;1999.90;999.90;;;26.70;41.80;;;;;;5092947;28;20404;-71